KJFK/JFK METAR and TAF weather

Enter ICAO airport designator
Station Type Date Time Source
KJFK METAR 2020/01/19 22:51 UTC NOAA

KJFK 192251Z 32017G26KT 10SM OVC055 03/M07 A2987 RMK AO2 PK WND 32029/2156 SLP113 T00331072 $


Station Type Date Time Source
KJFK Decoded METAR 2020/01/19 22:51 UTC NOAA

KENNEDY INTERNATIONAL AIRPORT , NY, United States (KJFK) 40-38N 073-46W 9M
Jan 19, 2020 - 05:51 PM EST / 2020.01.19 2251 UTC
Wind: from the NW (320 degrees) at 20 MPH (17 KT) gusting to 30 MPH (26 KT):0
Visibility: 10 mile(s):0
Sky conditions: overcast
Temperature: 37.9 F (3.3 C)
Dew Point: 19.0 F (-7.2 C)
Relative Humidity: 46%
Pressure (altimeter): 29.87 in. Hg (1011 hPa)
ob: KJFK 192251Z 32017G26KT 10SM OVC055 03/M07 A2987 RMK AO2 PK WND 32029/2156 SLP113 T00331072
cycle: 23

Station Type Date Time Source
KJFK TAF 2020/01/19 20:14 UTC NOAA

TAF
AMD KJFK 192006Z 1920/2024 30016G25KT P6SM BKN050
FM200600 32016G25KT P6SM SCT040
FM201100 33015G22KT P6SM FEW040
FM201600 33013G19KT P6SM SKC
FM202100 33013KT P6SM SKC

Example: see airport list